Time;durP1;ratioP1;P1;durP2;ratioP2;P2;SDS_P1;SDS_P2;PMS_P1;PMS_P2;Temp;Humidity;BMP_temperature;BMP_pressure;BME280_temperature;BME280_humidity;BME280_pressure;Samples;Min_cycle;Max_cycle;Signal;HPM_P1;HPM_P2
2022/12/23 00:00:43;;;;;;;7.20;4.70;;;8.20;99.90;;;;;;5031086;28;20454;-67
2022/12/23 00:03:10;;;;;;;12.33;4.40;;;8.20;99.90;;;;;;5031056;28;21202;-68
2022/12/23 00:05:39;;;;;;;11.20;4.90;;;8.20;99.90;;;;;;5031080;28;20986;-67
2022/12/23 00:08:07;;;;;;;6.57;4.93;;;8.20;99.90;;;;;;5031021;28;20446;-68
2022/12/23 00:10:34;;;;;;;10.97;5.73;;;8.20;99.90;;;;;;5031239;28;20445;-68
2022/12/23 00:15:45;;;;;;;10.00;5.43;;;8.20;99.90;;;;;;5035315;28;20472;-68
2022/12/23 00:18:12;;;;;;;8.63;5.30;;;8.20;99.90;;;;;;5034587;28;20523;-67
2022/12/23 00:20:40;;;;;;;11.37;6.03;;;8.10;99.90;;;;;;5035189;28;20438;-68
2022/12/23 00:23:07;;;;;;;7.87;5.00;;;8.20;99.90;;;;;;5034654;28;20450;-68
2022/12/23 00:25:43;;;;;;;9.33;5.50;;;8.20;99.90;;;;;;5035311;28;20548;-67
2022/12/23 00:28:12;;;;;;;12.70;6.43;;;8.20;99.90;;;;;;5034631;28;20965;-68
2022/12/23 00:30:45;;;;;;;9.77;6.37;;;8.10;99.90;;;;;;5035130;28;20483;-68
2022/12/23 00:33:12;;;;;;;15.27;7.33;;;8.10;99.90;;;;;;5034816;28;20540;-68
2022/12/23 00:35:40;;;;;;;13.37;5.50;;;8.10;99.90;;;;;;5034598;28;20493;-68
2022/12/23 00:38:07;;;;;;;10.80;5.80;;;8.10;99.90;;;;;;5034792;28;20454;-67
2022/12/23 00:43:18;;;;;;;11.20;6.00;;;8.20;99.90;;;;;;5034543;28;20529;-67
2022/12/23 00:45:44;;;;;;;10.73;6.70;;;8.20;99.90;;;;;;5034722;28;20469;-67
2022/12/23 00:50:57;;;;;;;9.67;6.57;;;8.20;99.90;;;;;;5034689;28;21012;-67
2022/12/23 00:53:24;;;;;;;16.63;7.00;;;8.20;99.90;;;;;;5026558;28;20450;-68
2022/12/23 00:55:50;;;;;;;8.13;5.33;;;8.20;99.90;;;;;;5034565;28;20496;-67
2022/12/23 00:58:19;;;;;;;7.00;5.10;;;8.20;99.90;;;;;;5034109;28;21104;-67
2022/12/23 01:06:17;;;;;;;4.13;2.80;;;8.20;99.90;;;;;;5034188;28;20453;-68
2022/12/23 01:08:44;;;;;;;3.60;3.27;;;8.20;99.90;;;;;;5034020;28;20499;-67
2022/12/23 01:11:12;;;;;;;3.60;2.53;;;8.30;99.90;;;;;;5033908;28;20446;-67
2022/12/23 01:13:39;;;;;;;2.80;2.27;;;8.30;99.90;;;;;;5034240;28;20454;-68
2022/12/23 01:16:09;;;;;;;5.60;3.00;;;8.30;99.90;;;;;;5034068;28;20474;-67
2022/12/23 01:18:36;;;;;;;4.47;2.90;;;8.30;99.90;;;;;;5033573;28;20453;-68
2022/12/23 01:21:03;;;;;;;5.70;2.97;;;8.30;99.90;;;;;;5033734;28;20454;-67
2022/12/23 01:23:32;;;;;;;4.73;2.80;;;8.30;99.90;;;;;;5034059;28;20941;-67
2022/12/23 01:25:59;;;;;;;2.70;2.50;;;8.30;99.90;;;;;;5033992;28;20469;-67
2022/12/23 01:28:27;;;;;;;3.40;2.70;;;8.30;99.90;;;;;;5025868;28;20458;-67
2022/12/23 01:30:54;;;;;;;6.03;3.23;;;8.30;99.90;;;;;;5033902;28;20460;-67
2022/12/23 01:33:21;;;;;;;8.00;3.10;;;8.30;99.90;;;;;;5033657;28;20458;-67
2022/12/23 01:35:47;;;;;;;3.37;3.07;;;8.30;99.90;;;;;;5033433;28;20497;-67
2022/12/23 01:38:14;;;;;;;3.47;3.17;;;8.20;99.90;;;;;;5033574;28;20508;-67
2022/12/23 01:40:44;;;;;;;3.97;2.90;;;8.20;99.90;;;;;;5033781;28;20453;-67
2022/12/23 01:43:14;;;;;;;3.80;3.00;;;8.20;99.90;;;;;;5033848;28;20483;-67
2022/12/23 01:45:41;;;;;;;3.43;2.50;;;8.20;99.90;;;;;;5033621;28;20553;-67
2022/12/23 01:48:11;;;;;;;5.97;2.23;;;8.20;99.90;;;;;;5033100;28;20501;-67
2022/12/23 01:50:40;;;;;;;3.97;1.83;;;8.20;99.90;;;;;;5033748;28;20503;-67
2022/12/23 01:53:11;;;;;;;4.33;2.00;;;8.20;99.90;;;;;;5033416;28;20465;-67
2022/12/23 01:55:49;;;;;;;2.17;1.80;;;8.20;99.90;;;;;;5033474;28;20535;-67
2022/12/23 01:58:19;;;;;;;2.30;2.10;;;8.20;99.90;;;;;;5033275;28;20454;-66
2022/12/23 02:03:42;;;;;;;2.33;1.53;;;8.20;99.90;;;;;;5033299;28;20433;-67
2022/12/23 02:12:05;;;;;;;2.40;2.00;;;8.20;99.90;;;;;;5033136;28;20487;-67
2022/12/23 02:17:36;;;;;;;2.30;1.73;;;8.10;99.90;;;;;;5032502;28;21036;-67
2022/12/23 02:20:55;;;;;;;2.43;2.30;;;8.10;99.90;;;;;;5032916;28;20458;-67
2022/12/23 02:24:15;;;;;;;2.90;2.20;;;8.10;99.90;;;;;;5032528;28;20480;-67
2022/12/23 02:27:05;;;;;;;3.47;2.07;;;8.10;99.90;;;;;;5030260;28;20508;-67
2022/12/23 02:30:01;;;;;;;2.00;1.87;;;8.10;99.90;;;;;;5032565;28;20996;-67
2022/12/23 02:32:38;;;;;;;10.57;2.60;;;8.00;99.90;;;;;;5032920;28;20450;-68
2022/12/23 02:35:12;;;;;;;2.20;2.00;;;8.00;99.90;;;;;;5031924;28;20521;-67
2022/12/23 02:37:48;;;;;;;2.70;1.47;;;8.00;99.90;;;;;;5032447;28;20945;-67
2022/12/23 02:40:25;;;;;;;4.03;1.97;;;8.10;99.90;;;;;;5032506;28;20500;-67
2022/12/23 02:42:58;;;;;;;4.20;2.80;;;8.10;99.90;;;;;;5032647;28;20951;-67
2022/12/23 02:45:32;;;;;;;3.03;2.73;;;8.20;99.90;;;;;;5032405;28;20466;-67
2022/12/23 02:48:06;;;;;;;3.23;1.90;;;8.20;99.90;;;;;;5032398;28;20487;-67
2022/12/23 02:50:37;;;;;;;2.00;1.80;;;8.20;99.90;;;;;;5025093;28;20450;-67
2022/12/23 02:53:09;;;;;;;2.43;1.70;;;8.30;99.90;;;;;;5032307;28;20457;-67
2022/12/23 02:55:40;;;;;;;2.03;1.50;;;8.30;99.90;;;;;;5032306;28;20489;-67
2022/12/23 02:58:11;;;;;;;1.80;1.70;;;8.30;99.90;;;;;;5032028;28;20453;-67
2022/12/23 03:00:41;;;;;;;1.27;1.10;;;8.40;99.90;;;;;;5032010;28;20454;-67
2022/12/23 03:03:09;;;;;;;1.40;1.30;;;8.40;99.90;;;;;;5031710;28;20453;-67
2022/12/23 03:05:40;;;;;;;1.20;1.10;;;8.50;99.90;;;;;;5032244;28;20466;-67
2022/12/23 03:08:12;;;;;;;1.40;1.30;;;8.60;99.90;;;;;;5031875;28;20446;-67
2022/12/23 03:10:51;;;;;;;1.50;1.20;;;8.60;99.90;;;;;;5031882;28;20485;-67
2022/12/23 03:13:24;;;;;;;3.10;1.20;;;8.60;99.90;;;;;;5031605;28;20450;-67
2022/12/23 03:16:07;;;;;;;1.77;1.20;;;8.70;99.90;;;;;;5031954;28;20501;-67
2022/12/23 03:18:45;;;;;;;1.80;1.37;;;8.70;99.90;;;;;;5023903;28;20445;-67
2022/12/23 03:21:20;;;;;;;1.33;1.23;;;8.70;99.90;;;;;;5031459;28;20453;-67
2022/12/23 03:23:52;;;;;;;1.47;1.30;;;8.70;99.90;;;;;;5032022;28;20441;-67
2022/12/23 03:26:22;;;;;;;1.70;1.17;;;8.70;99.90;;;;;;5031539;28;20524;-67
2022/12/23 03:28:54;;;;;;;1.40;1.27;;;8.70;99.90;;;;;;5031650;28;20462;-67
2022/12/23 03:31:26;;;;;;;1.10;1.00;;;8.70;99.90;;;;;;5031418;28;20460;-67
2022/12/23 03:33:59;;;;;;;2.70;1.30;;;8.80;99.90;;;;;;5031835;28;20457;-68
2022/12/23 03:36:31;;;;;;;1.37;1.27;;;8.80;99.90;;;;;;5031588;28;20497;-67
2022/12/23 03:38:59;;;;;;;1.27;1.17;;;8.70;99.90;;;;;;5031408;28;21185;-67
2022/12/23 03:41:32;;;;;;;1.40;1.07;;;8.70;99.90;;;;;;5031390;28;20457;-67
2022/12/23 03:44:03;;;;;;;1.77;1.40;;;8.60;99.90;;;;;;5031427;28;20512;-67
2022/12/23 03:46:34;;;;;;;1.13;1.00;;;8.60;99.90;;;;;;5030743;28;20520;-67
2022/12/23 03:49:05;;;;;;;1.50;1.40;;;8.60;99.90;;;;;;5031529;28;20457;-68
2022/12/23 03:51:38;;;;;;;1.30;1.20;;;8.60;99.90;;;;;;5023462;28;20507;-67
2022/12/23 03:54:10;;;;;;;1.67;1.20;;;8.60;99.90;;;;;;5031467;28;20457;-67
2022/12/23 03:56:41;;;;;;;1.73;1.17;;;8.60;99.90;;;;;;5023643;28;20490;-67
2022/12/23 03:59:14;;;;;;;2.47;1.30;;;8.60;99.90;;;;;;5031048;28;20606;-67
2022/12/23 04:01:47;;;;;;;1.50;1.30;;;8.60;99.90;;;;;;5031345;28;20452;-67
2022/12/23 04:04:22;;;;;;;1.60;1.20;;;8.60;99.90;;;;;;5031247;28;20454;-67
2022/12/23 04:06:56;;;;;;;1.30;1.20;;;8.60;99.90;;;;;;5031355;28;20460;-68
2022/12/23 04:09:25;;;;;;;1.83;1.30;;;8.60;99.90;;;;;;5031273;28;20446;-68
2022/12/23 04:11:52;;;;;;;1.37;1.20;;;8.70;99.90;;;;;;5031346;28;20450;-68
2022/12/23 04:14:20;;;;;;;4.13;1.40;;;8.70;99.90;;;;;;5030976;28;20541;-67
2022/12/23 04:16:48;;;;;;;3.23;1.30;;;8.60;99.90;;;;;;5031127;28;20535;-67
2022/12/23 04:19:16;;;;;;;1.20;1.10;;;8.60;99.90;;;;;;5030580;28;20469;-67
2022/12/23 04:21:43;;;;;;;1.40;1.20;;;8.60;99.90;;;;;;5031182;28;20472;-67
2022/12/23 04:24:09;;;;;;;1.87;1.40;;;8.60;99.90;;;;;;5031039;28;20445;-67
2022/12/23 04:26:36;;;;;;;1.50;1.40;;;8.50;99.90;;;;;;5030907;28;20848;-67
2022/12/23 04:29:03;;;;;;;1.40;1.30;;;8.50;99.90;;;;;;5030797;28;20580;-68
2022/12/23 04:31:29;;;;;;;1.60;1.50;;;8.50;99.90;;;;;;5030518;28;20458;-68
2022/12/23 04:33:56;;;;;;;1.40;1.30;;;8.50;99.90;;;;;;5031195;28;20457;-67
2022/12/23 04:36:24;;;;;;;1.20;1.10;;;8.50;99.90;;;;;;5030861;28;20497;-67
2022/12/23 04:38:51;;;;;;;1.30;1.10;;;8.50;99.90;;;;;;5030865;28;20450;-68
2022/12/23 04:41:17;;;;;;;5.50;1.30;;;8.50;99.90;;;;;;5030746;28;20449;-68
2022/12/23 04:43:44;;;;;;;1.30;1.20;;;8.50;99.90;;;;;;5030778;28;20519;-67
2022/12/23 04:46:11;;;;;;;5.47;1.43;;;8.50;99.90;;;;;;5030557;28;20462;-67
2022/12/23 04:48:37;;;;;;;1.50;1.40;;;8.50;99.90;;;;;;5030813;28;20450;-67
2022/12/23 04:51:04;;;;;;;2.57;1.53;;;8.60;99.90;;;;;;5030978;28;20454;-67
2022/12/23 04:53:32;;;;;;;6.93;1.50;;;8.60;99.90;;;;;;5030730;28;20508;-67
2022/12/23 04:55:59;;;;;;;2.63;2.43;;;8.60;99.90;;;;;;5030733;28;20519;-67
2022/12/23 04:58:25;;;;;;;2.10;1.83;;;8.60;99.90;;;;;;5033527;28;20454;-67
2022/12/23 05:01:01;;;;;;;3.13;1.73;;;8.60;99.90;;;;;;5034301;28;20524;-68
2022/12/23 05:03:28;;;;;;;1.77;1.40;;;8.50;99.90;;;;;;5034423;28;20457;-68
2022/12/23 05:05:54;;;;;;;1.70;1.60;;;8.50;99.90;;;;;;5034455;28;20535;-67
2022/12/23 05:08:21;;;;;;;1.87;1.77;;;8.50;99.90;;;;;;5034115;28;20480;-67
2022/12/23 05:10:49;;;;;;;1.70;1.60;;;8.50;99.90;;;;;;5034330;28;20499;-68
2022/12/23 05:13:16;;;;;;;1.97;1.87;;;8.50;99.90;;;;;;5033775;28;20953;-67
2022/12/23 05:15:43;;;;;;;3.87;1.70;;;8.50;99.90;;;;;;5034287;28;20548;-67
2022/12/23 05:18:10;;;;;;;1.73;1.63;;;8.50;99.90;;;;;;5033735;28;20511;-67
2022/12/23 05:20:37;;;;;;;3.53;1.80;;;8.50;99.90;;;;;;5033448;28;20441;-68
2022/12/23 05:23:03;;;;;;;2.07;1.97;;;8.50;99.90;;;;;;5033816;28;20454;-67
2022/12/23 05:25:32;;;;;;;4.60;1.50;;;8.50;99.90;;;;;;5033916;28;20539;-67
2022/12/23 05:28:00;;;;;;;1.80;1.70;;;8.50;99.90;;;;;;5033744;28;20461;-67
2022/12/23 05:30:26;;;;;;;1.70;1.60;;;8.50;99.90;;;;;;5033827;28;20446;-68
2022/12/23 05:32:53;;;;;;;2.80;1.70;;;8.50;99.90;;;;;;5033876;28;20457;-67
2022/12/23 05:35:20;;;;;;;2.20;2.10;;;8.50;99.90;;;;;;5033501;28;20576;-67
2022/12/23 05:37:47;;;;;;;2.17;1.97;;;8.50;99.90;;;;;;5033395;28;20438;-68
2022/12/23 05:40:13;;;;;;;1.80;1.67;;;8.50;99.90;;;;;;5033638;28;20455;-67
2022/12/23 05:42:40;;;;;;;1.93;1.73;;;8.50;99.90;;;;;;5033771;28;20442;-67
2022/12/23 05:45:09;;;;;;;1.50;1.40;;;8.60;99.90;;;;;;5033693;28;20466;-67
2022/12/23 05:47:36;;;;;;;2.33;1.50;;;8.60;99.90;;;;;;5033466;28;20442;-67
2022/12/23 05:50:04;;;;;;;1.30;1.20;;;8.60;99.90;;;;;;5033420;28;20504;-67
2022/12/23 05:52:30;;;;;;;3.97;1.43;;;8.50;99.90;;;;;;5033112;28;20454;-67
2022/12/23 05:54:57;;;;;;;1.67;1.57;;;8.60;99.90;;;;;;5033582;28;20540;-67
2022/12/23 05:57:24;;;;;;;1.90;1.60;;;8.60;99.90;;;;;;5033166;28;20445;-67
2022/12/23 05:59:50;;;;;;;1.40;1.23;;;8.60;99.90;;;;;;5033273;28;20860;-67
2022/12/23 06:02:20;;;;;;;1.50;1.40;;;8.70;99.90;;;;;;5032950;28;20996;-67
2022/12/23 06:04:47;;;;;;;4.13;1.77;;;8.70;99.90;;;;;;5033068;28;20481;-68
2022/12/23 06:07:14;;;;;;;2.30;2.10;;;8.70;99.90;;;;;;5033038;28;20442;-68
2022/12/23 06:09:40;;;;;;;3.07;2.10;;;8.70;99.90;;;;;;5032256;28;20449;-68
2022/12/23 06:12:07;;;;;;;2.00;1.80;;;8.70;99.90;;;;;;5033008;28;20446;-68
2022/12/23 06:14:34;;;;;;;1.83;1.73;;;8.70;99.90;;;;;;5032756;28;20446;-67
2022/12/23 06:17:00;;;;;;;1.80;1.70;;;8.70;99.90;;;;;;5032201;28;20489;-67
2022/12/23 06:19:28;;;;;;;1.87;1.40;;;8.70;99.90;;;;;;5032813;28;20454;-68
2022/12/23 06:21:55;;;;;;;8.30;1.63;;;8.60;99.90;;;;;;5032953;28;20446;-67
2022/12/23 06:24:22;;;;;;;2.93;1.80;;;8.70;99.90;;;;;;5032619;28;20503;-68
2022/12/23 06:26:48;;;;;;;2.80;1.60;;;8.70;99.90;;;;;;5032697;28;20450;-68
2022/12/23 06:29:15;;;;;;;1.40;1.30;;;8.80;99.90;;;;;;5032265;28;20496;-68
2022/12/23 06:31:42;;;;;;;2.67;1.50;;;8.80;99.90;;;;;;5032540;28;20508;-68
2022/12/23 06:34:08;;;;;;;5.50;2.00;;;8.80;99.90;;;;;;5032887;28;20453;-68
2022/12/23 06:36:36;;;;;;;2.17;1.30;;;8.80;99.90;;;;;;5032474;28;20544;-67
2022/12/23 06:39:03;;;;;;;3.57;1.50;;;8.80;99.90;;;;;;5032578;28;20511;-67
2022/12/23 06:41:30;;;;;;;2.37;1.30;;;8.80;99.90;;;;;;5032156;28;20458;-68
2022/12/23 06:43:57;;;;;;;3.00;1.30;;;8.90;99.90;;;;;;5032511;28;20520;-68
2022/12/23 06:46:23;;;;;;;3.63;1.23;;;9.00;99.90;;;;;;5032381;28;20474;-67
2022/12/23 06:48:50;;;;;;;2.50;1.60;;;8.90;99.90;;;;;;5032504;28;20511;-67
2022/12/23 06:51:16;;;;;;;4.50;2.03;;;8.90;99.90;;;;;;5032203;28;20512;-67
2022/12/23 06:53:44;;;;;;;1.50;1.40;;;8.90;99.90;;;;;;5032506;28;20450;-70
2022/12/23 06:56:11;;;;;;;2.60;1.57;;;8.90;99.90;;;;;;5032159;28;20540;-66
2022/12/23 06:58:38;;;;;;;2.33;1.50;;;8.90;99.90;;;;;;5031805;28;20450;-67
2022/12/23 07:01:05;;;;;;;1.90;1.80;;;8.90;99.90;;;;;;5032371;28;20461;-67
2022/12/23 07:03:31;;;;;;;1.70;1.60;;;8.90;99.90;;;;;;5032104;28;20460;-68
2022/12/23 07:05:58;;;;;;;1.60;1.50;;;8.90;99.90;;;;;;5032214;28;20465;-69
2022/12/23 07:08:25;;;;;;;2.53;1.60;;;8.90;99.90;;;;;;5031810;28;20483;-67
2022/12/23 07:10:59;;;;;;;1.70;1.60;;;8.90;99.90;;;;;;5031813;28;20450;-67
2022/12/23 07:13:26;;;;;;;1.80;1.70;;;8.90;99.90;;;;;;5031678;28;20450;-68
2022/12/23 07:15:52;;;;;;;1.90;1.80;;;8.90;99.90;;;;;;5031867;28;20501;-69
2022/12/23 07:18:21;;;;;;;1.90;1.80;;;9.00;99.90;;;;;;5031213;28;20454;-69
2022/12/23 07:20:47;;;;;;;3.17;1.80;;;9.00;99.90;;;;;;5031491;28;20446;-69
2022/12/23 07:23:14;;;;;;;2.73;1.67;;;9.00;99.90;;;;;;5031590;28;20454;-68
2022/12/23 07:25:41;;;;;;;3.87;1.43;;;9.10;99.90;;;;;;5031410;28;20502;-69
2022/12/23 07:28:09;;;;;;;1.50;1.37;;;9.10;99.90;;;;;;5031449;28;20496;-68
2022/12/23 07:30:36;;;;;;;1.70;1.60;;;9.20;99.90;;;;;;5031478;28;20934;-69
2022/12/23 07:33:03;;;;;;;3.93;1.70;;;9.20;99.90;;;;;;5031661;28;20450;-68
2022/12/23 07:35:29;;;;;;;2.23;1.70;;;9.10;99.90;;;;;;5031556;28;20473;-69
2022/12/23 07:37:56;;;;;;;1.83;1.47;;;9.10;99.90;;;;;;5031412;28;20457;-68
2022/12/23 07:40:23;;;;;;;6.90;1.60;;;9.10;99.90;;;;;;5031532;28;20560;-68
2022/12/23 07:42:53;;;;;;;3.43;1.57;;;9.10;99.90;;;;;;5027790;28;20972;-69
2022/12/23 07:45:21;;;;;;;5.10;1.70;;;9.10;99.90;;;;;;5027461;28;20458;-82
2022/12/23 07:47:52;;;;;;;4.60;4.20;;;9.10;99.90;;;;;;5027829;28;20516;-81
2022/12/23 07:50:18;;;;;;;3.90;3.60;;;9.30;99.90;;;;;;5027319;28;20512;-84
2022/12/23 07:52:45;;;;;;;3.13;2.80;;;9.40;99.90;;;;;;5027551;28;20456;-82
2022/12/23 07:55:12;;;;;;;1.87;1.77;;;9.70;99.90;;;;;;5028090;28;20477;-82
2022/12/23 07:57:39;;;;;;;2.37;2.10;;;9.70;99.90;;;;;;5027562;28;20604;-83
2022/12/23 08:00:07;;;;;;;3.97;1.80;;;9.80;99.90;;;;;;5027483;28;20461;-83
2022/12/23 08:02:35;;;;;;;2.90;2.70;;;9.80;99.90;;;;;;5027395;28;20454;-82
2022/12/23 08:05:02;;;;;;;1.80;1.63;;;9.80;99.90;;;;;;5028297;28;20473;-82
2022/12/23 08:07:29;;;;;;;2.10;1.90;;;9.80;99.90;;;;;;5027740;28;20442;-82
2022/12/23 08:09:55;;;;;;;1.70;1.60;;;9.70;99.90;;;;;;5028254;28;20442;-82
2022/12/23 08:12:22;;;;;;;3.47;1.53;;;9.70;99.90;;;;;;5027466;28;20465;-82
2022/12/23 08:14:51;;;;;;;1.50;1.40;;;9.60;99.90;;;;;;5027428;28;20532;-69
2022/12/23 08:17:19;;;;;;;9.13;2.33;;;9.50;99.90;;;;;;5026301;28;20834;-69
2022/12/23 08:19:47;;;;;;;1.60;1.50;;;9.50;99.90;;;;;;5027649;28;20458;-69
2022/12/23 08:22:14;;;;;;;1.80;1.70;;;9.40;99.90;;;;;;5027536;28;20449;-70
2022/12/23 08:24:41;;;;;;;2.57;2.37;;;9.40;99.90;;;;;;5027520;28;20465;-69
2022/12/23 08:27:07;;;;;;;3.23;2.80;;;9.30;99.90;;;;;;5027443;28;20442;-69
2022/12/23 08:29:34;;;;;;;1.67;1.57;;;9.30;99.90;;;;;;5026555;28;20461;-69
2022/12/23 08:32:01;;;;;;;2.47;1.97;;;9.30;99.90;;;;;;5028105;28;20464;-69
2022/12/23 08:34:27;;;;;;;2.13;1.60;;;9.30;99.90;;;;;;5031441;28;20442;-70
2022/12/23 08:36:55;;;;;;;2.53;2.10;;;9.30;99.90;;;;;;5030951;28;21581;-69
2022/12/23 08:39:22;;;;;;;2.70;2.20;;;9.30;99.90;;;;;;5030632;28;20508;-69
2022/12/23 08:41:49;;;;;;;2.03;1.77;;;9.30;99.90;;;;;;5031002;28;20949;-69
2022/12/23 08:44:16;;;;;;;2.70;1.70;;;9.30;99.90;;;;;;5031022;28;20450;-69
2022/12/23 08:46:43;;;;;;;7.07;1.73;;;9.30;99.90;;;;;;5031141;28;20450;-69
2022/12/23 08:49:10;;;;;;;1.93;1.83;;;9.30;99.90;;;;;;5031013;28;20445;-69
2022/12/23 08:51:38;;;;;;;2.27;1.97;;;9.30;99.90;;;;;;5030876;28;20450;-69
2022/12/23 08:54:07;;;;;;;2.40;2.20;;;9.30;99.90;;;;;;5031124;28;20527;-69
2022/12/23 08:56:36;;;;;;;2.43;1.83;;;9.30;99.90;;;;;;5029795;28;20502;-69
2022/12/23 08:59:03;;;;;;;2.23;1.97;;;9.40;99.90;;;;;;5031119;28;20458;-69
2022/12/23 09:01:34;;;;;;;2.13;2.03;;;9.40;99.90;;;;;;5030156;28;20469;-69
2022/12/23 09:04:02;;;;;;;3.30;3.00;;;9.40;99.90;;;;;;5030911;28;20949;-69
2022/12/23 09:06:32;;;;;;;5.53;4.23;;;9.40;99.90;;;;;;5030614;28;20457;-70
2022/12/23 09:08:59;;;;;;;3.50;3.17;;;9.40;99.90;;;;;;5029222;28;20453;-70
2022/12/23 09:11:28;;;;;;;3.10;2.80;;;9.40;99.90;;;;;;5029248;28;20487;-69
2022/12/23 09:13:57;;;;;;;6.90;2.60;;;9.40;99.90;;;;;;5029738;28;20438;-69
2022/12/23 09:16:24;;;;;;;2.50;2.30;;;9.40;99.90;;;;;;5024227;28;20496;-69
2022/12/23 09:18:51;;;;;;;3.00;2.70;;;9.40;99.90;;;;;;5023010;28;20515;-69
2022/12/23 09:21:19;;;;;;;2.90;2.53;;;9.40;99.90;;;;;;5024951;28;20454;-68
2022/12/23 09:23:46;;;;;;;3.20;2.27;;;9.40;99.90;;;;;;5027228;28;20446;-69
2022/12/23 09:26:18;;;;;;;3.70;2.63;;;9.50;99.90;;;;;;5026880;28;20539;-68
2022/12/23 09:28:46;;;;;;;3.30;2.30;;;9.50;99.90;;;;;;5025963;28;21283;-68
2022/12/23 09:31:13;;;;;;;2.60;2.40;;;9.50;99.90;;;;;;5025163;28;21834;-69
2022/12/23 09:33:40;;;;;;;2.90;2.70;;;9.50;99.90;;;;;;5025755;28;20465;-68
2022/12/23 09:36:08;;;;;;;2.33;2.13;;;9.50;99.90;;;;;;5026150;28;20478;-70
2022/12/23 09:38:35;;;;;;;3.13;2.20;;;9.50;99.90;;;;;;5026376;28;20502;-68
2022/12/23 09:41:03;;;;;;;4.20;2.60;;;9.50;99.90;;;;;;5026770;28;20458;-69
2022/12/23 09:43:39;;;;;;;2.83;2.37;;;9.50;99.90;;;;;;5024870;28;20458;-68
2022/12/23 09:46:15;;;;;;;2.30;2.10;;;9.50;99.90;;;;;;5024844;28;20481;-68
2022/12/23 09:48:46;;;;;;;4.13;2.00;;;9.50;99.90;;;;;;5025673;28;20519;-68
2022/12/23 09:51:14;;;;;;;2.50;2.30;;;9.50;99.90;;;;;;5025673;28;20545;-69
2022/12/23 09:53:52;;;;;;;2.70;2.20;;;9.50;99.90;;;;;;5025963;28;20461;-69
2022/12/23 09:56:27;;;;;;;4.77;1.80;;;9.60;99.90;;;;;;5025918;28;20481;-69
2022/12/23 09:58:58;;;;;;;2.77;2.27;;;9.60;99.90;;;;;;5026283;28;20469;-70
2022/12/23 10:01:32;;;;;;;4.80;2.57;;;9.60;99.90;;;;;;5025063;28;20970;-68
2022/12/23 10:04:24;;;;;;;6.20;2.80;;;9.60;99.90;;;;;;5025992;28;20454;-70
2022/12/23 10:07:02;;;;;;;3.40;3.10;;;9.60;99.90;;;;;;5024530;28;20513;-70
2022/12/23 10:09:30;;;;;;;3.57;3.27;;;9.60;99.90;;;;;;5025112;28;20457;-69
2022/12/23 10:11:57;;;;;;;4.83;3.37;;;9.60;99.90;;;;;;5025276;28;20462;-70
2022/12/23 10:14:27;;;;;;;2.90;2.60;;;9.60;99.90;;;;;;5025454;28;20461;-70
2022/12/23 10:16:58;;;;;;;4.07;2.93;;;9.60;99.90;;;;;;5024686;28;20497;-70
2022/12/23 10:19:30;;;;;;;7.10;2.60;;;9.60;99.90;;;;;;5024311;28;20549;-70
2022/12/23 10:22:04;;;;;;;2.27;2.10;;;9.50;99.90;;;;;;5023996;28;20446;-70
2022/12/23 10:24:36;;;;;;;3.00;1.97;;;9.50;99.90;;;;;;5024243;28;20458;-70
2022/12/23 10:27:12;;;;;;;3.20;2.30;;;9.50;99.90;;;;;;5023438;28;20449;-70
2022/12/23 10:29:40;;;;;;;2.53;2.33;;;9.50;99.90;;;;;;5024026;28;20543;-70
2022/12/23 10:32:21;;;;;;;4.17;2.23;;;9.50;99.90;;;;;;5022721;28;20888;-69
2022/12/23 10:34:52;;;;;;;2.80;1.90;;;9.50;99.90;;;;;;5024383;28;20523;-69
2022/12/23 10:37:26;;;;;;;5.00;1.83;;;9.60;99.90;;;;;;5023757;28;20555;-70
2022/12/23 10:40:09;;;;;;;2.17;1.80;;;9.60;99.90;;;;;;5024181;28;20511;-70
2022/12/23 10:42:41;;;;;;;6.40;2.20;;;9.50;99.90;;;;;;5024360;28;20461;-69
2022/12/23 10:45:22;;;;;;;3.87;3.00;;;9.50;99.90;;;;;;5024295;28;20541;-69
2022/12/23 10:48:02;;;;;;;8.60;3.80;;;9.50;99.90;;;;;;5024609;28;20445;-69
2022/12/23 10:50:47;;;;;;;4.40;2.33;;;9.50;99.90;;;;;;5024959;28;20585;-69
2022/12/23 10:53:16;;;;;;;3.10;2.37;;;9.50;99.90;;;;;;5024635;28;20453;-70
2022/12/23 10:55:44;;;;;;;4.43;2.30;;;9.50;99.90;;;;;;5024383;28;20557;-70
2022/12/23 10:58:16;;;;;;;3.23;2.37;;;9.50;99.90;;;;;;5024195;28;21041;-70
2022/12/23 11:00:47;;;;;;;4.57;2.90;;;9.50;99.90;;;;;;5024619;28;20461;-70
2022/12/23 11:03:19;;;;;;;8.33;3.30;;;9.50;99.90;;;;;;5024870;28;20508;-70
2022/12/23 11:05:50;;;;;;;4.90;3.40;;;9.50;99.90;;;;;;5025095;28;21930;-70
2022/12/23 11:08:17;;;;;;;3.50;3.00;;;9.50;99.90;;;;;;5024527;28;20461;-70
2022/12/23 11:10:44;;;;;;;3.90;2.87;;;9.50;99.90;;;;;;5024379;28;20454;-70
2022/12/23 11:13:23;;;;;;;4.60;2.60;;;9.50;99.90;;;;;;5024621;28;20464;-70
2022/12/23 11:15:51;;;;;;;5.40;2.77;;;9.40;99.90;;;;;;5022007;28;20997;-70
2022/12/23 11:18:20;;;;;;;3.00;1.90;;;9.40;99.90;;;;;;5023983;28;20862;-70
2022/12/23 11:21:02;;;;;;;2.87;2.30;;;9.40;99.90;;;;;;5022876;28;20461;-70
2022/12/23 11:23:31;;;;;;;5.43;2.23;;;9.40;99.90;;;;;;5023451;28;20461;-70
2022/12/23 11:26:03;;;;;;;3.22;1.85;;;9.40;99.90;;;;;;5022777;28;20536;-70
2022/12/23 11:28:32;;;;;;;2.40;1.83;;;9.40;99.90;;;;;;5024187;28;20237;-70
2022/12/23 11:31:04;;;;;;;3.73;1.87;;;9.40;99.90;;;;;;5022456;28;20596;-68
2022/12/23 11:33:35;;;;;;;2.50;2.17;;;9.40;99.90;;;;;;5023451;28;20462;-70
2022/12/23 11:36:06;;;;;;;1.90;1.80;;;9.40;99.90;;;;;;5023137;28;20489;-69
2022/12/23 11:38:35;;;;;;;5.73;1.87;;;9.40;99.90;;;;;;5023022;28;21741;-70
2022/12/23 11:41:03;;;;;;;4.57;3.33;;;9.40;99.90;;;;;;5023601;28;20462;-70
2022/12/23 11:43:32;;;;;;;2.50;2.30;;;9.40;99.90;;;;;;5023077;28;20518;-70
2022/12/23 11:46:18;;;;;;;2.70;2.50;;;9.40;99.90;;;;;;5022684;28;20509;-71
2022/12/23 11:48:46;;;;;;;4.97;3.17;;;9.40;99.90;;;;;;5022837;28;20449;-70
2022/12/23 11:51:12;;;;;;;4.60;4.13;;;9.40;99.90;;;;;;5023595;28;20458;-69
2022/12/23 11:53:43;;;;;;;7.03;4.83;;;9.40;99.90;;;;;;5023329;28;20446;-69
2022/12/23 11:56:12;;;;;;;7.57;5.93;;;9.30;99.90;;;;;;5023295;28;20470;-69
2022/12/23 11:58:46;;;;;;;7.27;6.13;;;9.30;99.90;;;;;;5021776;28;20580;-69
2022/12/23 12:01:17;;;;;;;8.90;6.97;;;9.30;99.90;;;;;;5022598;28;20453;-69
2022/12/23 12:03:50;;;;;;;8.23;6.83;;;9.30;99.90;;;;;;5022888;28;20461;-69
2022/12/23 12:06:18;;;;;;;7.20;6.30;;;9.30;99.90;;;;;;5022802;28;20474;-70
2022/12/23 12:08:49;;;;;;;8.13;6.80;;;9.30;99.90;;;;;;5022066;28;20469;-71
2022/12/23 12:11:18;;;;;;;9.93;7.47;;;9.30;99.90;;;;;;5023654;28;20464;-69
2022/12/23 12:13:48;;;;;;;7.60;6.80;;;9.30;99.90;;;;;;5022471;28;20500;-70
2022/12/23 12:16:29;;;;;;;12.37;7.30;;;9.20;99.90;;;;;;5020917;28;20477;-69
2022/12/23 12:19:04;;;;;;;9.30;7.43;;;9.30;99.90;;;;;;5022545;28;20493;-70
2022/12/23 12:21:36;;;;;;;10.10;7.37;;;9.20;99.90;;;;;;5022631;28;20461;-70
2022/12/23 12:24:06;;;;;;;10.83;8.27;;;9.20;99.90;;;;;;5022347;28;20564;-70
2022/12/23 12:26:37;;;;;;;11.87;8.27;;;9.20;99.90;;;;;;5022390;28;20489;-69
2022/12/23 12:29:13;;;;;;;13.40;8.80;;;9.20;99.90;;;;;;5021635;28;20461;-69
2022/12/23 12:31:45;;;;;;;16.60;9.67;;;9.10;99.90;;;;;;5021690;28;20520;-69
2022/12/23 12:34:25;;;;;;;13.40;9.37;;;9.10;99.90;;;;;;5022895;28;20543;-68
2022/12/23 12:36:59;;;;;;;15.30;9.47;;;9.10;99.90;;;;;;5022294;28;20461;-71
2022/12/23 12:39:30;;;;;;;15.73;8.33;;;9.10;99.90;;;;;;5022628;28;20482;-71
2022/12/23 12:42:02;;;;;;;12.00;8.70;;;9.10;99.90;;;;;;5022931;28;20457;-71
2022/12/23 12:44:37;;;;;;;14.13;8.60;;;9.10;99.90;;;;;;5024076;28;20458;-71
2022/12/23 12:47:12;;;;;;;15.10;9.73;;;9.10;99.90;;;;;;5022680;28;20484;-71
2022/12/23 12:49:45;;;;;;;17.73;9.63;;;9.10;99.90;;;;;;5023605;28;20491;-71
2022/12/23 12:52:14;;;;;;;10.63;8.10;;;9.10;99.90;;;;;;5022945;28;20458;-71
2022/12/23 12:54:47;;;;;;;11.50;8.50;;;9.10;99.90;;;;;;5023631;28;20473;-71
2022/12/23 12:57:16;;;;;;;8.40;7.40;;;9.00;99.90;;;;;;5022692;28;20489;-70
2022/12/23 12:59:44;;;;;;;13.83;7.93;;;9.00;99.90;;;;;;5023517;28;20469;-71
2022/12/23 13:02:41;;;;;;;10.17;7.70;;;9.00;99.90;;;;;;5022851;28;20450;-71
2022/12/23 13:05:32;;;;;;;12.10;8.00;;;9.00;99.90;;;;;;5023202;28;20529;-70
2022/12/23 13:08:26;;;;;;;15.40;7.10;;;9.00;99.90;;;;;;5021856;28;20446;-71
2022/12/23 13:10:57;;;;;;;9.53;7.27;;;9.00;99.90;;;;;;5021236;28;21110;-71
2022/12/23 13:13:35;;;;;;;10.40;7.00;;;8.90;99.90;;;;;;5023063;28;20461;-71
2022/12/23 13:16:10;;;;;;;10.20;6.40;;;8.90;99.90;;;;;;5021071;28;20466;-71
2022/12/23 13:18:43;;;;;;;11.97;6.60;;;8.90;99.90;;;;;;5024088;28;20493;-71
2022/12/23 13:21:18;;;;;;;8.70;5.70;;;8.90;99.90;;;;;;5025961;28;20458;-71
2022/12/23 13:23:50;;;;;;;9.77;7.80;;;8.90;99.90;;;;;;5026521;28;20465;-71
2022/12/23 13:26:26;;;;;;;12.10;6.90;;;8.90;99.90;;;;;;5026679;28;20555;-71
2022/12/23 13:29:04;;;;;;;13.57;8.00;;;8.90;99.90;;;;;;5025833;28;20465;-71
2022/12/23 13:31:44;;;;;;;10.90;7.87;;;8.90;99.90;;;;;;5025833;28;20465;-71
2022/12/23 13:34:23;;;;;;;9.30;7.23;;;8.90;99.90;;;;;;5026240;28;20449;-71
2022/12/23 13:36:58;;;;;;;9.57;6.50;;;8.80;99.90;;;;;;5026348;28;20465;-71